createdAt,value
2023-03-01T00:01:15.557Z,7.22
2023-03-01T00:03:43.629Z,6.72
2023-03-01T00:06:10.771Z,6.75
2023-03-01T00:08:38.160Z,6.32
2023-03-01T00:11:21.649Z,6.97
2023-03-01T00:13:50.747Z,6.75
2023-03-01T00:16:20.690Z,7.00
2023-03-01T00:18:47.895Z,6.85
2023-03-01T00:21:15.329Z,6.85
2023-03-01T00:23:42.661Z,6.15
2023-03-01T00:26:13.821Z,5.85
2023-03-01T00:28:41.648Z,5.43
2023-03-01T00:31:11.832Z,4.63
2023-03-01T00:33:39.326Z,4.85
2023-03-01T00:36:06.908Z,5.72
2023-03-01T00:38:42.130Z,4.95
2023-03-01T00:41:11.484Z,4.90
2023-03-01T00:43:39.006Z,5.60
2023-03-01T00:46:08.885Z,6.07
2023-03-01T00:48:36.303Z,5.75
2023-03-01T00:51:19.264Z,5.05
2023-03-01T00:53:47.223Z,5.80
2023-03-01T00:56:15.632Z,5.15
2023-03-01T00:58:43.999Z,6.03
2023-03-01T01:01:19.194Z,5.40
2023-03-01T01:03:52.598Z,5.05
2023-03-01T01:06:40.384Z,5.03
2023-03-01T01:09:08.341Z,5.47
2023-03-01T01:11:37.321Z,5.30
2023-03-01T01:14:04.500Z,5.68
2023-03-01T01:16:31.911Z,5.32
2023-03-01T01:18:59.212Z,5.15
2023-03-01T01:21:28.075Z,5.68
2023-03-01T01:23:55.443Z,3.95
2023-03-01T01:26:25.980Z,5.60
2023-03-01T01:28:53.966Z,4.60
2023-03-01T01:31:21.328Z,5.07
2023-03-01T01:33:48.329Z,4.75
2023-03-01T01:36:15.144Z,4.68
2023-03-01T01:38:43.661Z,4.53
2023-03-01T01:41:12.580Z,5.65
2023-03-01T01:43:45.721Z,5.05
2023-03-01T01:46:29.961Z,4.40
2023-03-01T01:49:04.909Z,5.10
2023-03-01T01:51:41.439Z,5.47
2023-03-01T01:54:17.486Z,4.45
2023-03-01T01:56:52.689Z,4.90
2023-03-01T01:59:19.934Z,4.93
2023-03-01T02:01:46.747Z,5.60
2023-03-01T02:04:13.695Z,5.55
2023-03-01T02:06:55.341Z,5.05
2023-03-01T02:09:24.110Z,4.28
2023-03-01T02:11:52.444Z,4.38
2023-03-01T02:14:19.657Z,5.05
2023-03-01T02:16:47.086Z,4.68
2023-03-01T02:19:42.481Z,4.18
2023-03-01T02:22:12.806Z,4.80
2023-03-01T02:24:58.571Z,5.03
2023-03-01T02:27:32.016Z,4.70
2023-03-01T02:29:59.103Z,4.45
2023-03-01T02:32:26.433Z,4.85
2023-03-01T02:34:56.643Z,4.10
2023-03-01T02:37:26.014Z,5.07
2023-03-01T02:40:03.898Z,4.30
2023-03-01T02:42:42.433Z,4.60
2023-03-01T02:45:11.202Z,4.55
2023-03-01T02:47:38.014Z,4.53
2023-03-01T02:50:32.632Z,4.55
2023-03-01T02:53:12.361Z,4.75
2023-03-01T02:55:39.680Z,4.65
2023-03-01T02:58:06.785Z,4.63
2023-03-01T03:00:41.207Z,4.13
2023-03-01T03:03:08.858Z,4.65
2023-03-01T03:05:35.624Z,5.75
2023-03-01T03:08:04.695Z,5.55
2023-03-01T03:10:40.590Z,5.20
2023-03-01T03:13:13.705Z,4.45
2023-03-01T03:15:43.104Z,4.97
2023-03-01T03:18:13.280Z,4.65
2023-03-01T03:20:42.914Z,4.30
2023-03-01T03:23:10.204Z,5.70
2023-03-01T03:25:38.857Z,5.35
2023-03-01T03:28:10.709Z,4.57
2023-03-01T03:30:41.989Z,3.83
2023-03-01T03:33:13.107Z,4.35
2023-03-01T03:35:44.537Z,4.07
2023-03-01T03:38:17.070Z,4.50
2023-03-01T03:40:45.276Z,4.72
2023-03-01T03:43:16.123Z,4.75
2023-03-01T03:45:45.984Z,5.03
2023-03-01T03:48:14.527Z,5.18
2023-03-01T03:50:42.534Z,4.53
2023-03-01T03:53:13.094Z,5.47
2023-03-01T03:55:40.591Z,5.00
2023-03-01T03:58:10.713Z,5.30
2023-03-01T04:00:45.690Z,5.20
2023-03-01T04:03:14.565Z,4.75
2023-03-01T04:05:42.043Z,4.32
2023-03-01T04:08:10.062Z,4.90
2023-03-01T04:10:41.255Z,4.50
2023-03-01T04:13:13.917Z,4.55
2023-03-01T04:15:41.665Z,5.20
2023-03-01T04:18:12.102Z,5.25
2023-03-01T04:20:40.092Z,5.00
2023-03-01T04:23:14.570Z,5.05
2023-03-01T04:25:42.362Z,5.03
2023-03-01T04:28:10.479Z,5.53
2023-03-01T04:30:39.806Z,5.22
2023-03-01T04:33:08.493Z,5.70
2023-03-01T04:35:36.739Z,5.88
2023-03-01T04:38:04.661Z,5.72
2023-03-01T04:40:31.685Z,5.95
2023-03-01T04:42:58.595Z,6.35
2023-03-01T04:45:25.688Z,6.60
2023-03-01T04:47:55.291Z,6.00
2023-03-01T04:50:22.717Z,6.80
2023-03-01T04:52:49.523Z,6.90
2023-03-01T04:55:17.025Z,7.60
2023-03-01T04:57:43.870Z,7.68
2023-03-01T05:00:21.467Z,8.23
2023-03-01T05:02:50.280Z,8.85
2023-03-01T05:05:17.285Z,9.57
2023-03-01T05:07:44.356Z,10.73
2023-03-01T05:10:11.374Z,11.43
2023-03-01T05:12:38.465Z,11.48
2023-03-01T05:15:08.343Z,17.23
2023-03-01T05:17:35.472Z,11.85
2023-03-01T05:20:02.344Z,10.82
2023-03-01T05:22:29.611Z,9.07
2023-03-01T05:24:56.703Z,9.68
2023-03-01T05:27:23.584Z,10.35
2023-03-01T05:29:50.768Z,9.57
2023-03-01T05:32:17.650Z,10.18
2023-03-01T05:34:45.172Z,10.25
2023-03-01T05:37:12.330Z,9.32
2023-03-01T05:39:39.112Z,7.95
2023-03-01T05:42:06.492Z,7.88
2023-03-01T05:44:33.407Z,8.45
2023-03-01T05:47:00.579Z,9.02
2023-03-01T05:49:27.368Z,8.65
2023-03-01T05:51:54.862Z,13.13
2023-03-01T05:54:23.031Z,13.73
2023-03-01T05:56:50.045Z,9.63
2023-03-01T05:59:17.478Z,10.00
2023-03-01T06:01:44.757Z,9.40
2023-03-01T06:04:11.867Z,11.57
2023-03-01T06:06:39.532Z,10.50
2023-03-01T06:09:08.432Z,10.93
2023-03-01T06:11:36.681Z,11.77
2023-03-01T06:14:04.647Z,16.35
2023-03-01T06:16:32.269Z,23.58
2023-03-01T06:18:59.199Z,18.58
2023-03-01T06:21:26.214Z,16.35
2023-03-01T06:23:53.245Z,16.95
2023-03-01T06:26:20.507Z,20.63
2023-03-01T06:28:47.306Z,19.38
2023-03-01T06:31:14.554Z,28.20
2023-03-01T06:33:41.423Z,15.18
2023-03-01T06:36:09.303Z,18.27
2023-03-01T06:38:36.241Z,13.05
2023-03-01T06:41:03.295Z,15.02
2023-03-01T06:43:30.230Z,13.77
2023-03-01T06:45:57.394Z,16.25
2023-03-01T06:48:24.216Z,16.60
2023-03-01T06:50:51.162Z,15.27
2023-03-01T06:53:18.043Z,11.48
2023-03-01T06:55:45.051Z,10.98
2023-03-01T06:58:12.405Z,11.50
2023-03-01T07:00:41.725Z,11.90
2023-03-01T07:03:09.668Z,12.32
2023-03-01T07:05:36.920Z,18.33
2023-03-01T07:08:04.394Z,14.07
2023-03-01T07:10:31.144Z,14.63
2023-03-01T07:12:59.383Z,12.68
2023-03-01T07:15:27.884Z,14.18
2023-03-01T07:17:55.257Z,14.73
2023-03-01T07:20:26.638Z,12.13
2023-03-01T07:22:55.252Z,16.33
2023-03-01T07:25:22.138Z,14.35
2023-03-01T07:27:53.514Z,14.77
2023-03-01T07:32:48.762Z,46.63
2023-03-01T07:35:16.032Z,24.65
2023-03-01T07:37:43.059Z,35.95
2023-03-01T07:40:11.243Z,34.47
2023-03-01T07:42:38.313Z,21.17
2023-03-01T07:45:06.828Z,14.80
2023-03-01T07:47:33.817Z,22.48
2023-03-01T07:50:02.409Z,17.77
2023-03-01T07:52:30.025Z,14.32
2023-03-01T07:54:57.063Z,13.90
2023-03-01T07:57:24.699Z,17.60
2023-03-01T07:59:51.696Z,16.83
2023-03-01T08:02:18.494Z,14.18
2023-03-01T08:04:45.733Z,13.70
2023-03-01T08:07:12.644Z,14.95
2023-03-01T08:09:39.634Z,12.80
2023-03-01T08:12:07.102Z,14.98
2023-03-01T08:14:34.143Z,12.65
2023-03-01T08:17:01.210Z,25.02
2023-03-01T08:19:29.365Z,17.98
2023-03-01T08:21:59.188Z,23.65
2023-03-01T08:24:26.600Z,19.00
2023-03-01T08:26:53.695Z,19.02
2023-03-01T08:29:21.260Z,16.20
2023-03-01T08:31:48.842Z,16.67
2023-03-01T08:34:18.469Z,16.80
2023-03-01T08:36:47.373Z,15.68
2023-03-01T08:39:17.362Z,16.48
2023-03-01T08:41:46.435Z,16.05
2023-03-01T08:44:17.684Z,18.15
2023-03-01T08:46:46.762Z,15.48
2023-03-01T08:49:17.321Z,16.85
2023-03-01T08:51:45.799Z,22.70
2023-03-01T08:54:22.150Z,21.52
2023-03-01T08:56:50.023Z,19.73
2023-03-01T08:59:18.369Z,17.50
2023-03-01T09:01:45.765Z,15.88
2023-03-01T09:04:13.720Z,16.02
2023-03-01T09:06:40.770Z,15.63
2023-03-01T09:09:13.053Z,15.02
2023-03-01T09:11:40.348Z,17.60
2023-03-01T09:14:08.149Z,15.95
2023-03-01T09:16:37.170Z,15.27
2023-03-01T09:19:04.486Z,14.70
2023-03-01T09:21:40.158Z,13.20
2023-03-01T09:24:15.787Z,14.02
2023-03-01T09:26:43.704Z,16.00
2023-03-01T09:29:10.864Z,15.65
2023-03-01T09:31:38.217Z,16.80
2023-03-01T09:34:06.563Z,15.18
2023-03-01T09:36:34.658Z,16.17
2023-03-01T09:39:02.391Z,19.63
2023-03-01T09:41:48.119Z,60.25
2023-03-01T09:44:35.577Z,37.67
2023-03-01T09:47:03.456Z,72.95
2023-03-01T09:49:34.466Z,30.40
2023-03-01T09:54:28.710Z,22.58
2023-03-01T09:57:16.011Z,15.40
2023-03-01T09:59:52.153Z,22.20
2023-03-01T10:02:33.999Z,18.35
2023-03-01T10:05:28.582Z,18.88
2023-03-01T10:08:21.100Z,22.33
2023-03-01T10:10:48.864Z,20.83
2023-03-01T10:13:44.747Z,15.98
2023-03-01T10:16:17.994Z,16.33
2023-03-01T10:18:48.712Z,17.10
2023-03-01T10:21:19.852Z,18.67
2023-03-01T10:23:50.950Z,18.42
2023-03-01T10:26:26.680Z,20.45
2023-03-01T10:29:00.164Z,19.13
2023-03-01T10:31:53.467Z,20.13
2023-03-01T10:34:30.521Z,19.80
2023-03-01T10:37:11.584Z,26.23
2023-03-01T10:42:35.047Z,19.13
2023-03-01T10:45:20.503Z,17.00
2023-03-01T10:47:47.737Z,19.80
2023-03-01T10:50:24.540Z,16.88
2023-03-01T10:53:04.227Z,17.83
2023-03-01T10:55:37.238Z,17.38
2023-03-01T10:58:10.697Z,16.42
2023-03-01T11:00:48.868Z,18.02
2023-03-01T11:03:21.846Z,18.30
2023-03-01T11:05:54.096Z,17.35
2023-03-01T11:08:35.336Z,16.38
2023-03-01T11:11:06.503Z,15.90
2023-03-01T11:16:04.225Z,15.13
2023-03-01T11:18:46.408Z,14.02
2023-03-01T11:21:16.765Z,14.75
2023-03-01T11:23:47.756Z,16.35
2023-03-01T11:26:18.567Z,14.82
2023-03-01T11:28:51.455Z,14.02
2023-03-01T11:31:20.325Z,12.93
2023-03-01T11:34:17.683Z,14.82
2023-03-01T11:36:57.707Z,18.10
2023-03-01T11:40:01.115Z,14.20
2023-03-01T11:42:55.545Z,13.93
2023-03-01T11:45:26.416Z,14.45
2023-03-01T11:47:56.575Z,17.33
2023-03-01T11:50:36.072Z,14.80
2023-03-01T11:53:13.103Z,16.35
2023-03-01T11:56:00.844Z,17.42
2023-03-01T11:58:54.058Z,15.77
2023-03-01T12:01:38.015Z,17.45
2023-03-01T12:04:15.575Z,16.70
2023-03-01T12:06:48.797Z,15.77
2023-03-01T12:09:21.823Z,15.65
2023-03-01T12:11:55.075Z,17.83
2023-03-01T12:14:32.139Z,18.23
2023-03-01T12:17:09.176Z,26.88
2023-03-01T12:19:58.764Z,18.45
2023-03-01T12:23:19.362Z,16.60
2023-03-01T12:25:53.941Z,18.80
2023-03-01T12:28:48.437Z,17.98
2023-03-01T12:31:40.010Z,15.18
2023-03-01T12:34:43.471Z,21.83
2023-03-01T12:37:45.056Z,19.05
2023-03-01T12:40:15.054Z,15.52
2023-03-01T12:42:53.048Z,15.82
2023-03-01T12:45:49.420Z,16.00
2023-03-01T12:48:22.651Z,14.15
2023-03-01T12:50:55.357Z,16.38
2023-03-01T12:53:30.211Z,16.90
2023-03-01T12:56:07.873Z,18.73
2023-03-01T12:59:00.933Z,17.70
2023-03-01T13:01:41.156Z,15.95
2023-03-01T13:04:26.415Z,18.17
2023-03-01T13:07:23.666Z,17.05
2023-03-01T13:10:02.695Z,20.70
2023-03-01T13:12:48.702Z,17.15
2023-03-01T13:15:24.351Z,18.67
2023-03-01T13:17:54.254Z,19.45
2023-03-01T13:20:44.025Z,19.20
2023-03-01T13:23:14.421Z,18.63
2023-03-01T13:26:18.213Z,19.73
2023-03-01T13:28:45.431Z,17.88
2023-03-01T13:31:32.345Z,49.60
2023-03-01T13:34:08.404Z,27.48
2023-03-01T13:36:37.235Z,24.48
2023-03-01T13:39:27.443Z,30.73
2023-03-01T13:41:56.817Z,16.20
2023-03-01T13:44:39.729Z,29.05
2023-03-01T13:47:07.048Z,25.38
2023-03-01T13:50:03.725Z,29.85
2023-03-01T13:52:41.601Z,25.27
2023-03-01T13:55:14.772Z,23.20
2023-03-01T13:57:45.686Z,33.88
2023-03-01T14:00:40.212Z,27.27
2023-03-01T14:03:15.905Z,19.60
2023-03-01T14:06:11.251Z,29.00
2023-03-01T14:08:43.261Z,27.40
2023-03-01T14:11:47.653Z,26.33
2023-03-01T14:14:23.482Z,27.52
2023-03-01T14:17:05.757Z,25.42
2023-03-01T14:19:34.674Z,24.40
2023-03-01T14:22:23.544Z,24.48
2023-03-01T14:24:55.462Z,22.63
2023-03-01T14:27:24.453Z,24.17
2023-03-01T14:30:01.163Z,26.85
2023-03-01T14:32:30.998Z,31.35
2023-03-01T14:35:00.517Z,21.95
2023-03-01T14:37:35.685Z,21.35
2023-03-01T14:40:05.295Z,20.90
2023-03-01T14:42:37.338Z,26.83
2023-03-01T14:45:15.748Z,26.33
2023-03-01T14:47:45.501Z,30.88
2023-03-01T14:50:18.894Z,28.50
2023-03-01T14:52:49.713Z,27.17
2023-03-01T14:57:54.305Z,32.20
2023-03-01T15:00:24.685Z,43.95
2023-03-01T15:02:54.421Z,23.67
2023-03-01T15:05:34.835Z,34.03
2023-03-01T15:08:04.795Z,23.65
2023-03-01T15:10:34.905Z,21.15
2023-03-01T15:13:23.558Z,31.70
2023-03-01T15:15:53.146Z,39.25
2023-03-01T15:18:28.817Z,25.88
2023-03-01T15:20:56.899Z,34.60
2023-03-01T15:23:28.288Z,37.10
2023-03-01T15:25:59.633Z,25.48
2023-03-01T15:28:34.826Z,29.95
2023-03-01T15:31:23.631Z,24.30
2023-03-01T15:33:51.578Z,26.75
2023-03-01T15:36:50.977Z,69.78
2023-03-01T15:39:44.532Z,30.50
2023-03-01T15:42:29.878Z,24.75
2023-03-01T15:45:17.001Z,40.70
2023-03-01T15:47:59.575Z,28.88
2023-03-01T15:50:31.224Z,38.58
2023-03-01T15:53:00.608Z,63.28
2023-03-01T15:55:34.261Z,35.20
2023-03-01T15:58:15.290Z,56.22
2023-03-01T16:00:57.997Z,43.75
2023-03-01T16:03:26.592Z,36.10
2023-03-01T16:05:53.449Z,28.33
2023-03-01T16:08:21.338Z,26.98
2023-03-01T16:10:51.035Z,37.90
2023-03-01T16:13:18.808Z,68.88
2023-03-01T16:15:46.247Z,38.08
2023-03-01T16:18:13.235Z,28.15
2023-03-01T16:20:41.129Z,45.55
2023-03-01T16:23:09.863Z,32.45
2023-03-01T16:25:37.342Z,76.72
2023-03-01T16:28:10.001Z,43.22
2023-03-01T16:30:39.211Z,36.15
2023-03-01T16:33:23.029Z,26.90
2023-03-01T16:35:52.244Z,29.42
2023-03-01T16:38:19.067Z,32.33
2023-03-01T16:40:51.853Z,26.23
2023-03-01T16:43:18.835Z,26.35
2023-03-01T16:45:46.476Z,25.38
2023-03-01T16:48:14.020Z,29.38
2023-03-01T16:50:41.284Z,28.90
2023-03-01T16:53:08.276Z,35.28
2023-03-01T16:55:35.444Z,34.92
2023-03-01T16:58:02.804Z,30.58
2023-03-01T17:00:29.898Z,41.13
2023-03-01T17:02:56.979Z,35.97
2023-03-01T17:05:25.008Z,36.90
2023-03-01T17:07:52.192Z,31.45
2023-03-01T17:10:19.133Z,27.55
2023-03-01T17:12:49.538Z,31.92
2023-03-01T17:15:16.571Z,35.78
2023-03-01T17:17:43.476Z,34.35
2023-03-01T17:20:12.530Z,34.30
2023-03-01T17:22:39.354Z,28.85
2023-03-01T17:25:10.366Z,25.48
2023-03-01T17:30:07.581Z,21.23
2023-03-01T17:32:34.896Z,34.97
2023-03-01T17:35:01.754Z,36.90
2023-03-01T17:37:28.701Z,29.10
2023-03-01T17:39:55.722Z,30.75
2023-03-01T17:42:22.605Z,35.88
2023-03-01T17:44:49.503Z,37.67
2023-03-01T17:47:16.649Z,23.58
2023-03-01T17:49:43.373Z,23.05
2023-03-01T17:52:10.208Z,25.85
2023-03-01T17:54:37.016Z,25.40
2023-03-01T17:57:04.044Z,27.15
2023-03-01T17:59:31.343Z,25.45
2023-03-01T18:02:01.902Z,31.55
2023-03-01T18:04:29.700Z,26.48
2023-03-01T18:06:56.574Z,27.77
2023-03-01T18:09:23.878Z,25.63
2023-03-01T18:11:50.694Z,44.45
2023-03-01T18:14:17.632Z,41.20
2023-03-01T18:16:44.824Z,44.92
2023-03-01T18:19:13.054Z,26.13
2023-03-01T18:21:40.196Z,26.75
2023-03-01T18:24:07.261Z,26.30
2023-03-01T18:26:34.464Z,28.58
2023-03-01T18:29:03.522Z,29.00
2023-03-01T18:31:33.667Z,26.98
2023-03-01T18:34:01.370Z,29.50
2023-03-01T18:36:32.067Z,25.80
2023-03-01T18:38:59.548Z,25.13
2023-03-01T18:41:28.585Z,29.88
2023-03-01T18:43:57.165Z,29.15
2023-03-01T18:46:24.713Z,23.17
2023-03-01T18:48:53.235Z,23.98
2023-03-01T18:51:23.900Z,25.95
2023-03-01T18:53:51.284Z,27.42
2023-03-01T18:56:18.192Z,26.77
2023-03-01T18:58:45.390Z,27.73
2023-03-01T19:01:17.557Z,51.85
2023-03-01T19:03:44.809Z,31.83
2023-03-01T19:06:11.983Z,25.02
2023-03-01T19:08:40.942Z,30.17
2023-03-01T19:11:09.570Z,25.92
2023-03-01T19:13:38.526Z,25.00
2023-03-01T19:16:14.422Z,28.27
2023-03-01T19:18:50.460Z,33.85
2023-03-01T19:21:19.865Z,32.15
2023-03-01T19:23:48.833Z,27.02
2023-03-01T19:26:18.918Z,31.58
2023-03-01T19:28:46.509Z,48.80
2023-03-01T19:31:19.857Z,35.13
2023-03-01T19:33:47.334Z,36.88
2023-03-01T19:36:14.887Z,37.55
2023-03-01T19:38:43.472Z,30.40
2023-03-01T19:41:14.860Z,37.53
2023-03-01T19:43:43.691Z,31.38
2023-03-01T19:46:11.514Z,30.63
2023-03-01T19:48:40.630Z,29.70
2023-03-01T19:51:08.894Z,28.45
2023-03-01T19:53:37.807Z,48.42
2023-03-01T19:56:05.433Z,34.78
2023-03-01T19:58:33.451Z,33.60
2023-03-01T20:01:01.159Z,46.55
2023-03-01T20:03:33.553Z,91.63
2023-03-01T20:06:07.404Z,63.65
2023-03-01T20:08:34.440Z,43.35
2023-03-01T20:11:06.555Z,34.70
2023-03-01T20:13:34.380Z,47.42
2023-03-01T20:16:01.288Z,37.85
2023-03-01T20:18:28.782Z,38.17
2023-03-01T20:20:56.098Z,32.55
2023-03-01T20:23:23.021Z,48.38
2023-03-01T20:25:50.475Z,41.15
2023-03-01T20:28:19.310Z,29.08
2023-03-01T20:30:46.313Z,32.70
2023-03-01T20:33:13.515Z,25.35
2023-03-01T20:35:42.530Z,23.15
2023-03-01T20:38:09.694Z,22.15
2023-03-01T20:40:37.689Z,23.92
2023-03-01T20:43:04.551Z,23.63
2023-03-01T20:45:31.870Z,25.50
2023-03-01T20:47:58.683Z,29.42
2023-03-01T20:50:25.541Z,22.38
2023-03-01T20:52:52.537Z,22.33
2023-03-01T20:55:19.530Z,22.20
2023-03-01T20:57:46.379Z,20.50
2023-03-01T21:00:13.578Z,20.73
2023-03-01T21:02:40.526Z,18.90
2023-03-01T21:05:07.723Z,20.25
2023-03-01T21:07:34.578Z,19.73
2023-03-01T21:10:01.517Z,20.73
2023-03-01T21:12:28.906Z,20.50
2023-03-01T21:14:56.004Z,19.17
2023-03-01T21:17:23.079Z,18.83
2023-03-01T21:19:50.813Z,19.63
2023-03-01T21:22:18.159Z,20.80
2023-03-01T21:24:45.217Z,18.33
2023-03-01T21:27:12.101Z,18.90
2023-03-01T21:29:41.061Z,18.05
2023-03-01T21:32:09.732Z,17.25
2023-03-01T21:34:37.423Z,17.92
2023-03-01T21:37:05.875Z,21.08
2023-03-01T21:39:33.838Z,22.33
2023-03-01T21:42:04.906Z,22.90
2023-03-01T21:44:33.002Z,25.38
2023-03-01T21:46:59.795Z,23.02
2023-03-01T21:49:27.075Z,23.55
2023-03-01T21:51:54.453Z,28.05
2023-03-01T21:54:22.043Z,24.90
2023-03-01T21:56:49.608Z,23.08
2023-03-01T21:59:22.409Z,22.15
2023-03-01T22:01:50.938Z,22.30
2023-03-01T22:04:18.717Z,23.52
2023-03-01T22:06:47.246Z,20.98
2023-03-01T22:09:24.811Z,21.70
2023-03-01T22:12:02.609Z,21.85
2023-03-01T22:14:31.500Z,20.25
2023-03-01T22:16:58.670Z,20.92
2023-03-01T22:19:28.815Z,20.20
2023-03-01T22:21:55.727Z,22.02
2023-03-01T22:24:25.174Z,20.65
2023-03-01T22:26:53.100Z,20.52
2023-03-01T22:29:26.567Z,22.17
2023-03-01T22:31:55.323Z,20.60
2023-03-01T22:34:24.597Z,22.38
2023-03-01T22:36:51.943Z,22.77
2023-03-01T22:39:21.163Z,24.23
2023-03-01T22:41:49.829Z,23.70
2023-03-01T22:44:22.291Z,21.63
2023-03-01T22:46:49.911Z,22.33
2023-03-01T22:49:18.967Z,21.05
2023-03-01T22:51:47.784Z,21.88
2023-03-01T22:54:16.498Z,23.80
2023-03-01T22:56:43.893Z,23.48
2023-03-01T22:59:14.608Z,22.48
2023-03-01T23:01:46.453Z,22.77
2023-03-01T23:04:15.335Z,20.60
2023-03-01T23:06:53.980Z,20.92
2023-03-01T23:09:31.425Z,20.20
2023-03-01T23:12:00.203Z,20.67
2023-03-01T23:14:30.875Z,18.25
2023-03-01T23:16:58.655Z,20.10
2023-03-01T23:19:25.580Z,19.33
2023-03-01T23:21:54.665Z,21.40
2023-03-01T23:24:24.037Z,19.88
2023-03-01T23:26:53.489Z,20.75
2023-03-01T23:29:20.896Z,20.52
2023-03-01T23:31:48.616Z,18.65
2023-03-01T23:34:15.464Z,20.45
2023-03-01T23:36:45.056Z,19.17
2023-03-01T23:39:13.824Z,21.42
2023-03-01T23:41:41.107Z,19.02
2023-03-01T23:44:08.095Z,19.75
2023-03-01T23:46:37.422Z,20.92
2023-03-01T23:49:04.724Z,19.05
2023-03-01T23:51:31.715Z,20.13
2023-03-01T23:54:01.649Z,19.40
2023-03-01T23:56:35.404Z,19.73
2023-03-01T23:59:23.636Z,19.70
